sensor_id;sensor_type;location;lat;lon;timestamp;P1;durP1;ratioP1;P2;durP2;ratioP2
15055;SDS011;7626;42.674;23.284;2022-08-03T00:00:53;1.48;;;1.38;;
15055;SDS011;7626;42.674;23.284;2022-08-03T00:03:19;1.88;;;1.50;;
15055;SDS011;7626;42.674;23.284;2022-08-03T00:05:46;3.25;;;1.50;;
15055;SDS011;7626;42.674;23.284;2022-08-03T00:08:12;1.50;;;1.40;;
15055;SDS011;7626;42.674;23.284;2022-08-03T00:10:40;2.85;;;1.60;;
15055;SDS011;7626;42.674;23.284;2022-08-03T00:13:07;4.03;;;1.90;;
15055;SDS011;7626;42.674;23.284;2022-08-03T00:15:33;2.05;;;1.63;;
15055;SDS011;7626;42.674;23.284;2022-08-03T00:18:00;1.85;;;1.70;;
15055;SDS011;7626;42.674;23.284;2022-08-03T00:20:26;2.88;;;1.63;;
15055;SDS011;7626;42.674;23.284;2022-08-03T00:22:53;3.83;;;1.90;;
15055;SDS011;7626;42.674;23.284;2022-08-03T00:25:19;2.50;;;1.50;;
15055;SDS011;7626;42.674;23.284;2022-08-03T00:27:47;2.67;;;1.90;;
15055;SDS011;7626;42.674;23.284;2022-08-03T00:30:14;1.92;;;1.77;;
15055;SDS011;7626;42.674;23.284;2022-08-03T00:32:40;3.17;;;2.10;;
15055;SDS011;7626;42.674;23.284;2022-08-03T00:35:07;3.97;;;1.80;;
15055;SDS011;7626;42.674;23.284;2022-08-03T00:37:34;2.10;;;1.80;;
15055;SDS011;7626;42.674;23.284;2022-08-03T00:40:00;2.53;;;1.57;;
15055;SDS011;7626;42.674;23.284;2022-08-03T00:42:27;2.75;;;1.40;;
15055;SDS011;7626;42.674;23.284;2022-08-03T00:44:54;3.00;;;2.57;;
15055;SDS011;7626;42.674;23.284;2022-08-03T00:47:21;4.90;;;2.60;;
15055;SDS011;7626;42.674;23.284;2022-08-03T00:49:47;3.35;;;2.38;;
15055;SDS011;7626;42.674;23.284;2022-08-03T00:52:14;3.73;;;2.77;;
15055;SDS011;7626;42.674;23.284;2022-08-03T00:54:41;3.30;;;3.00;;
15055;SDS011;7626;42.674;23.284;2022-08-03T00:57:08;5.57;;;3.83;;
15055;SDS011;7626;42.674;23.284;2022-08-03T00:59:34;4.00;;;3.60;;
15055;SDS011;7626;42.674;23.284;2022-08-03T01:02:03;3.37;;;3.07;;
15055;SDS011;7626;42.674;23.284;2022-08-03T01:04:30;3.33;;;2.20;;
15055;SDS011;7626;42.674;23.284;2022-08-03T01:07:06;2.50;;;2.30;;
15055;SDS011;7626;42.674;23.284;2022-08-03T01:09:39;2.90;;;2.17;;
15055;SDS011;7626;42.674;23.284;2022-08-03T01:12:07;2.90;;;2.67;;
15055;SDS011;7626;42.674;23.284;2022-08-03T01:14:37;2.87;;;2.43;;
15055;SDS011;7626;42.674;23.284;2022-08-03T01:17:08;3.67;;;2.70;;
15055;SDS011;7626;42.674;23.284;2022-08-03T01:19:42;2.90;;;2.60;;
15055;SDS011;7626;42.674;23.284;2022-08-03T01:22:13;4.40;;;2.50;;
15055;SDS011;7626;42.674;23.284;2022-08-03T01:24:43;3.57;;;2.40;;
15055;SDS011;7626;42.674;23.284;2022-08-03T01:27:13;2.20;;;1.93;;
15055;SDS011;7626;42.674;23.284;2022-08-03T01:30:00;2.57;;;2.27;;
15055;SDS011;7626;42.674;23.284;2022-08-03T01:32:33;2.13;;;1.67;;
15055;SDS011;7626;42.674;23.284;2022-08-03T01:35:01;2.20;;;1.77;;
15055;SDS011;7626;42.674;23.284;2022-08-03T01:37:31;2.83;;;1.70;;
15055;SDS011;7626;42.674;23.284;2022-08-03T01:40:00;3.20;;;1.70;;
15055;SDS011;7626;42.674;23.284;2022-08-03T01:42:28;1.77;;;1.53;;
15055;SDS011;7626;42.674;23.284;2022-08-03T01:44:54;1.90;;;1.80;;
15055;SDS011;7626;42.674;23.284;2022-08-03T01:47:24;2.27;;;1.50;;
15055;SDS011;7626;42.674;23.284;2022-08-03T01:49:51;1.70;;;1.60;;
15055;SDS011;7626;42.674;23.284;2022-08-03T01:52:18;2.77;;;1.60;;
15055;SDS011;7626;42.674;23.284;2022-08-03T01:54:45;3.00;;;1.50;;
15055;SDS011;7626;42.674;23.284;2022-08-03T01:57:13;2.07;;;1.73;;
15055;SDS011;7626;42.674;23.284;2022-08-03T01:59:41;3.50;;;1.63;;
15055;SDS011;7626;42.674;23.284;2022-08-03T02:02:08;2.80;;;1.80;;
15055;SDS011;7626;42.674;23.284;2022-08-03T02:04:37;3.50;;;2.00;;
15055;SDS011;7626;42.674;23.284;2022-08-03T02:07:04;3.77;;;1.70;;
15055;SDS011;7626;42.674;23.284;2022-08-03T02:09:31;3.00;;;2.20;;
15055;SDS011;7626;42.674;23.284;2022-08-03T02:11:59;4.67;;;2.17;;
15055;SDS011;7626;42.674;23.284;2022-08-03T02:14:26;2.30;;;1.87;;
15055;SDS011;7626;42.674;23.284;2022-08-03T02:16:53;3.20;;;2.10;;
15055;SDS011;7626;42.674;23.284;2022-08-03T02:19:20;3.33;;;2.00;;
15055;SDS011;7626;42.674;23.284;2022-08-03T02:21:49;4.40;;;2.10;;
15055;SDS011;7626;42.674;23.284;2022-08-03T02:24:16;4.10;;;2.17;;
15055;SDS011;7626;42.674;23.284;2022-08-03T02:26:43;1.93;;;1.73;;
15055;SDS011;7626;42.674;23.284;2022-08-03T02:29:12;3.70;;;2.03;;
15055;SDS011;7626;42.674;23.284;2022-08-03T02:31:39;2.87;;;2.30;;
15055;SDS011;7626;42.674;23.284;2022-08-03T02:34:07;3.37;;;2.00;;
15055;SDS011;7626;42.674;23.284;2022-08-03T02:36:35;5.03;;;2.10;;
15055;SDS011;7626;42.674;23.284;2022-08-03T02:39:04;2.90;;;1.80;;
15055;SDS011;7626;42.674;23.284;2022-08-03T02:41:34;3.67;;;1.93;;
15055;SDS011;7626;42.674;23.284;2022-08-03T02:44:02;3.57;;;2.20;;
15055;SDS011;7626;42.674;23.284;2022-08-03T02:46:31;2.17;;;1.90;;
15055;SDS011;7626;42.674;23.284;2022-08-03T02:48:58;6.00;;;2.00;;
15055;SDS011;7626;42.674;23.284;2022-08-03T02:51:26;2.57;;;1.90;;
15055;SDS011;7626;42.674;23.284;2022-08-03T02:53:53;2.30;;;2.10;;
15055;SDS011;7626;42.674;23.284;2022-08-03T02:56:22;2.30;;;2.10;;
15055;SDS011;7626;42.674;23.284;2022-08-03T02:58:49;2.60;;;2.00;;
15055;SDS011;7626;42.674;23.284;2022-08-03T03:01:18;2.23;;;1.80;;
15055;SDS011;7626;42.674;23.284;2022-08-03T03:03:45;5.77;;;2.17;;
15055;SDS011;7626;42.674;23.284;2022-08-03T03:06:13;2.47;;;2.27;;
15055;SDS011;7626;42.674;23.284;2022-08-03T03:08:40;3.00;;;2.10;;
15055;SDS011;7626;42.674;23.284;2022-08-03T03:11:07;2.50;;;2.10;;
15055;SDS011;7626;42.674;23.284;2022-08-03T03:13:36;2.30;;;2.10;;
15055;SDS011;7626;42.674;23.284;2022-08-03T03:16:03;4.73;;;2.30;;
15055;SDS011;7626;42.674;23.284;2022-08-03T03:18:31;2.43;;;2.20;;
15055;SDS011;7626;42.674;23.284;2022-08-03T03:20:58;4.53;;;2.57;;
15055;SDS011;7626;42.674;23.284;2022-08-03T03:23:26;3.07;;;2.43;;
15055;SDS011;7626;42.674;23.284;2022-08-03T03:25:53;3.53;;;2.67;;
15055;SDS011;7626;42.674;23.284;2022-08-03T03:28:20;6.27;;;2.40;;
15055;SDS011;7626;42.674;23.284;2022-08-03T03:30:48;4.97;;;2.60;;
15055;SDS011;7626;42.674;23.284;2022-08-03T03:33:15;3.90;;;2.67;;
15055;SDS011;7626;42.674;23.284;2022-08-03T03:35:42;2.67;;;2.40;;
15055;SDS011;7626;42.674;23.284;2022-08-03T03:38:10;3.27;;;2.40;;
15055;SDS011;7626;42.674;23.284;2022-08-03T03:40:37;4.33;;;2.33;;
15055;SDS011;7626;42.674;23.284;2022-08-03T03:43:06;4.53;;;2.47;;
15055;SDS011;7626;42.674;23.284;2022-08-03T03:45:33;3.67;;;2.23;;
15055;SDS011;7626;42.674;23.284;2022-08-03T03:48:02;4.13;;;2.37;;
15055;SDS011;7626;42.674;23.284;2022-08-03T03:50:28;4.50;;;2.53;;
15055;SDS011;7626;42.674;23.284;2022-08-03T03:52:55;3.10;;;2.80;;
15055;SDS011;7626;42.674;23.284;2022-08-03T03:55:22;4.63;;;2.80;;
15055;SDS011;7626;42.674;23.284;2022-08-03T03:57:49;4.30;;;2.77;;
15055;SDS011;7626;42.674;23.284;2022-08-03T04:00:16;6.43;;;3.20;;
15055;SDS011;7626;42.674;23.284;2022-08-03T04:02:43;4.60;;;2.90;;
15055;SDS011;7626;42.674;23.284;2022-08-03T04:05:12;3.60;;;3.17;;
15055;SDS011;7626;42.674;23.284;2022-08-03T04:07:57;6.20;;;3.40;;
15055;SDS011;7626;42.674;23.284;2022-08-03T04:10:42;5.60;;;3.07;;
15055;SDS011;7626;42.674;23.284;2022-08-03T04:13:26;5.07;;;3.17;;
15055;SDS011;7626;42.674;23.284;2022-08-03T04:15:54;4.23;;;3.53;;
15055;SDS011;7626;42.674;23.284;2022-08-03T04:18:22;6.73;;;3.30;;
15055;SDS011;7626;42.674;23.284;2022-08-03T04:20:50;3.77;;;3.20;;
15055;SDS011;7626;42.674;23.284;2022-08-03T04:23:17;8.80;;;3.20;;
15055;SDS011;7626;42.674;23.284;2022-08-03T04:25:46;4.63;;;3.27;;
15055;SDS011;7626;42.674;23.284;2022-08-03T04:28:14;5.33;;;3.30;;
15055;SDS011;7626;42.674;23.284;2022-08-03T04:30:41;4.87;;;3.07;;
15055;SDS011;7626;42.674;23.284;2022-08-03T04:33:12;5.17;;;3.30;;
15055;SDS011;7626;42.674;23.284;2022-08-03T04:35:40;7.33;;;3.33;;
15055;SDS011;7626;42.674;23.284;2022-08-03T04:38:08;5.40;;;3.43;;
15055;SDS011;7626;42.674;23.284;2022-08-03T04:40:38;6.73;;;4.40;;
15055;SDS011;7626;42.674;23.284;2022-08-03T04:43:05;6.40;;;3.93;;
15055;SDS011;7626;42.674;23.284;2022-08-03T04:45:33;5.43;;;3.80;;
15055;SDS011;7626;42.674;23.284;2022-08-03T04:47:59;4.67;;;3.27;;
15055;SDS011;7626;42.674;23.284;2022-08-03T04:50:26;6.80;;;5.00;;
15055;SDS011;7626;42.674;23.284;2022-08-03T04:52:53;6.60;;;5.33;;
15055;SDS011;7626;42.674;23.284;2022-08-03T04:55:27;6.80;;;4.60;;
15055;SDS011;7626;42.674;23.284;2022-08-03T04:57:54;10.53;;;5.43;;
15055;SDS011;7626;42.674;23.284;2022-08-03T05:00:20;6.30;;;4.97;;
15055;SDS011;7626;42.674;23.284;2022-08-03T05:02:47;7.17;;;5.23;;
15055;SDS011;7626;42.674;23.284;2022-08-03T05:05:14;6.83;;;4.43;;
15055;SDS011;7626;42.674;23.284;2022-08-03T05:07:41;5.70;;;4.03;;
15055;SDS011;7626;42.674;23.284;2022-08-03T05:10:08;7.00;;;4.23;;
15055;SDS011;7626;42.674;23.284;2022-08-03T05:12:36;6.00;;;3.80;;
15055;SDS011;7626;42.674;23.284;2022-08-03T05:15:03;5.30;;;4.17;;
15055;SDS011;7626;42.674;23.284;2022-08-03T05:17:30;5.43;;;4.00;;
15055;SDS011;7626;42.674;23.284;2022-08-03T05:19:58;12.93;;;5.77;;
15055;SDS011;7626;42.674;23.284;2022-08-03T05:22:24;6.33;;;4.50;;
15055;SDS011;7626;42.674;23.284;2022-08-03T05:24:51;4.85;;;3.95;;
15055;SDS011;7626;42.674;23.284;2022-08-03T05:27:18;6.63;;;3.42;;
15055;SDS011;7626;42.674;23.284;2022-08-03T05:29:46;8.48;;;3.95;;
15055;SDS011;7626;42.674;23.284;2022-08-03T05:32:12;7.38;;;3.67;;
15055;SDS011;7626;42.674;23.284;2022-08-03T05:34:39;4.72;;;3.75;;
15055;SDS011;7626;42.674;23.284;2022-08-03T05:37:06;6.10;;;5.07;;
15055;SDS011;7626;42.674;23.284;2022-08-03T05:39:32;10.80;;;7.10;;
15055;SDS011;7626;42.674;23.284;2022-08-03T05:41:59;5.93;;;5.22;;
15055;SDS011;7626;42.674;23.284;2022-08-03T05:44:26;6.22;;;4.35;;
15055;SDS011;7626;42.674;23.284;2022-08-03T05:46:54;5.43;;;3.97;;
15055;SDS011;7626;42.674;23.284;2022-08-03T05:49:20;5.60;;;3.70;;
15055;SDS011;7626;42.674;23.284;2022-08-03T05:51:47;6.85;;;4.20;;
15055;SDS011;7626;42.674;23.284;2022-08-03T05:54:13;6.57;;;5.10;;
15055;SDS011;7626;42.674;23.284;2022-08-03T05:56:40;6.57;;;4.40;;
15055;SDS011;7626;42.674;23.284;2022-08-03T05:59:26;7.15;;;5.03;;
15055;SDS011;7626;42.674;23.284;2022-08-03T06:01:54;6.10;;;4.38;;
15055;SDS011;7626;42.674;23.284;2022-08-03T06:04:20;7.03;;;4.70;;
15055;SDS011;7626;42.674;23.284;2022-08-03T06:06:47;5.70;;;4.30;;
15055;SDS011;7626;42.674;23.284;2022-08-03T06:09:14;9.35;;;4.47;;
15055;SDS011;7626;42.674;23.284;2022-08-03T06:11:41;7.50;;;4.82;;
15055;SDS011;7626;42.674;23.284;2022-08-03T06:14:07;11.48;;;5.53;;
15055;SDS011;7626;42.674;23.284;2022-08-03T06:16:34;9.23;;;5.30;;
15055;SDS011;7626;42.674;23.284;2022-08-03T06:19:02;8.10;;;5.03;;
15055;SDS011;7626;42.674;23.284;2022-08-03T06:21:28;6.80;;;5.60;;
15055;SDS011;7626;42.674;23.284;2022-08-03T06:23:55;7.15;;;5.10;;
15055;SDS011;7626;42.674;23.284;2022-08-03T06:26:22;5.30;;;4.80;;
15055;SDS011;7626;42.674;23.284;2022-08-03T06:28:49;7.40;;;4.55;;
15055;SDS011;7626;42.674;23.284;2022-08-03T06:31:15;7.97;;;4.90;;
15055;SDS011;7626;42.674;23.284;2022-08-03T06:33:42;6.95;;;4.72;;
15055;SDS011;7626;42.674;23.284;2022-08-03T06:36:10;6.28;;;4.45;;
15055;SDS011;7626;42.674;23.284;2022-08-03T06:38:36;7.10;;;5.07;;
15055;SDS011;7626;42.674;23.284;2022-08-03T06:41:03;11.02;;;5.28;;
15055;SDS011;7626;42.674;23.284;2022-08-03T06:43:29;6.40;;;4.70;;
15055;SDS011;7626;42.674;23.284;2022-08-03T06:45:59;9.00;;;4.00;;
15055;SDS011;7626;42.674;23.284;2022-08-03T06:48:26;8.98;;;3.80;;
15055;SDS011;7626;42.674;23.284;2022-08-03T06:50:52;7.85;;;3.65;;
15055;SDS011;7626;42.674;23.284;2022-08-03T06:53:20;6.70;;;3.38;;
15055;SDS011;7626;42.674;23.284;2022-08-03T06:55:47;7.22;;;3.53;;
15055;SDS011;7626;42.674;23.284;2022-08-03T06:58:13;5.38;;;3.60;;
15055;SDS011;7626;42.674;23.284;2022-08-03T07:00:40;5.93;;;3.03;;
15055;SDS011;7626;42.674;23.284;2022-08-03T07:03:06;5.97;;;3.40;;
15055;SDS011;7626;42.674;23.284;2022-08-03T07:05:33;4.47;;;3.20;;
15055;SDS011;7626;42.674;23.284;2022-08-03T07:08:00;6.03;;;3.20;;
15055;SDS011;7626;42.674;23.284;2022-08-03T07:10:28;4.22;;;3.35;;
15055;SDS011;7626;42.674;23.284;2022-08-03T07:12:55;5.65;;;3.38;;
15055;SDS011;7626;42.674;23.284;2022-08-03T07:15:21;6.07;;;3.40;;
15055;SDS011;7626;42.674;23.284;2022-08-03T07:17:48;6.70;;;4.00;;
15055;SDS011;7626;42.674;23.284;2022-08-03T07:20:15;6.43;;;3.55;;
15055;SDS011;7626;42.674;23.284;2022-08-03T07:22:42;6.63;;;3.53;;
15055;SDS011;7626;42.674;23.284;2022-08-03T07:25:09;4.07;;;3.67;;
15055;SDS011;7626;42.674;23.284;2022-08-03T07:27:37;6.35;;;3.53;;
15055;SDS011;7626;42.674;23.284;2022-08-03T07:30:04;6.10;;;3.78;;
15055;SDS011;7626;42.674;23.284;2022-08-03T07:32:31;5.45;;;3.38;;
15055;SDS011;7626;42.674;23.284;2022-08-03T07:34:58;5.68;;;3.60;;
15055;SDS011;7626;42.674;23.284;2022-08-03T07:37:24;4.05;;;3.50;;
15055;SDS011;7626;42.674;23.284;2022-08-03T07:39:51;5.35;;;3.40;;
15055;SDS011;7626;42.674;23.284;2022-08-03T07:42:17;4.68;;;3.05;;
15055;SDS011;7626;42.674;23.284;2022-08-03T07:44:45;4.45;;;2.90;;
15055;SDS011;7626;42.674;23.284;2022-08-03T07:47:12;5.63;;;3.30;;
15055;SDS011;7626;42.674;23.284;2022-08-03T07:49:43;3.00;;;2.70;;
15055;SDS011;7626;42.674;23.284;2022-08-03T07:52:09;4.78;;;3.20;;
15055;SDS011;7626;42.674;23.284;2022-08-03T07:54:53;4.32;;;3.00;;
15055;SDS011;7626;42.674;23.284;2022-08-03T07:57:19;5.65;;;3.10;;
15055;SDS011;7626;42.674;23.284;2022-08-03T07:59:47;4.03;;;3.40;;
15055;SDS011;7626;42.674;23.284;2022-08-03T08:02:14;3.35;;;3.05;;
15055;SDS011;7626;42.674;23.284;2022-08-03T08:04:40;5.43;;;3.10;;
15055;SDS011;7626;42.674;23.284;2022-08-03T08:07:07;6.03;;;3.35;;
15055;SDS011;7626;42.674;23.284;2022-08-03T08:09:34;4.35;;;2.90;;
15055;SDS011;7626;42.674;23.284;2022-08-03T08:12:00;4.43;;;3.13;;
15055;SDS011;7626;42.674;23.284;2022-08-03T08:14:27;4.85;;;2.95;;
15055;SDS011;7626;42.674;23.284;2022-08-03T08:16:55;4.68;;;2.63;;
15055;SDS011;7626;42.674;23.284;2022-08-03T08:19:21;5.50;;;3.20;;
15055;SDS011;7626;42.674;23.284;2022-08-03T08:21:48;4.60;;;2.70;;
15055;SDS011;7626;42.674;23.284;2022-08-03T08:24:14;3.65;;;2.75;;
15055;SDS011;7626;42.674;23.284;2022-08-03T08:26:41;3.75;;;2.90;;
15055;SDS011;7626;42.674;23.284;2022-08-03T08:29:07;4.97;;;2.85;;
15055;SDS011;7626;42.674;23.284;2022-08-03T08:31:34;8.38;;;2.83;;
15055;SDS011;7626;42.674;23.284;2022-08-03T08:34:02;5.97;;;3.10;;
15055;SDS011;7626;42.674;23.284;2022-08-03T08:36:30;9.25;;;3.60;;
15055;SDS011;7626;42.674;23.284;2022-08-03T08:38:56;4.03;;;2.70;;
15055;SDS011;7626;42.674;23.284;2022-08-03T08:41:23;5.45;;;2.60;;
15055;SDS011;7626;42.674;23.284;2022-08-03T08:43:49;3.95;;;2.80;;
15055;SDS011;7626;42.674;23.284;2022-08-03T08:46:16;5.05;;;2.80;;
15055;SDS011;7626;42.674;23.284;2022-08-03T08:48:43;5.05;;;2.72;;
15055;SDS011;7626;42.674;23.284;2022-08-03T08:51:12;5.38;;;2.72;;
15055;SDS011;7626;42.674;23.284;2022-08-03T08:53:39;3.25;;;2.45;;
15055;SDS011;7626;42.674;23.284;2022-08-03T08:56:06;4.70;;;2.38;;
15055;SDS011;7626;42.674;23.284;2022-08-03T08:58:36;6.57;;;3.13;;
15055;SDS011;7626;42.674;23.284;2022-08-03T09:01:03;2.85;;;2.60;;
15055;SDS011;7626;42.674;23.284;2022-08-03T09:03:32;4.80;;;3.00;;
15055;SDS011;7626;42.674;23.284;2022-08-03T09:05:59;3.65;;;2.70;;
15055;SDS011;7626;42.674;23.284;2022-08-03T09:08:27;3.20;;;2.38;;
15055;SDS011;7626;42.674;23.284;2022-08-03T09:10:54;2.50;;;2.30;;
15055;SDS011;7626;42.674;23.284;2022-08-03T09:13:20;2.90;;;2.60;;
15055;SDS011;7626;42.674;23.284;2022-08-03T09:15:47;6.03;;;2.67;;
15055;SDS011;7626;42.674;23.284;2022-08-03T09:18:22;3.20;;;2.40;;
15055;SDS011;7626;42.674;23.284;2022-08-03T09:20:53;3.75;;;2.38;;
15055;SDS011;7626;42.674;23.284;2022-08-03T09:23:43;4.07;;;2.30;;
15055;SDS011;7626;42.674;23.284;2022-08-03T09:26:11;3.78;;;2.88;;
15055;SDS011;7626;42.674;23.284;2022-08-03T09:28:37;3.08;;;2.78;;
15055;SDS011;7626;42.674;23.284;2022-08-03T09:31:04;4.45;;;2.80;;
15055;SDS011;7626;42.674;23.284;2022-08-03T09:33:32;3.28;;;2.47;;
15055;SDS011;7626;42.674;23.284;2022-08-03T09:36:12;2.13;;;1.92;;
15055;SDS011;7626;42.674;23.284;2022-08-03T09:39:01;4.38;;;2.67;;
15055;SDS011;7626;42.674;23.284;2022-08-03T09:41:29;3.28;;;2.50;;
15055;SDS011;7626;42.674;23.284;2022-08-03T09:43:56;2.65;;;2.33;;
15055;SDS011;7626;42.674;23.284;2022-08-03T09:46:23;2.30;;;2.10;;
15055;SDS011;7626;42.674;23.284;2022-08-03T09:48:49;4.22;;;2.33;;
15055;SDS011;7626;42.674;23.284;2022-08-03T09:51:16;2.40;;;2.20;;
15055;SDS011;7626;42.674;23.284;2022-08-03T09:53:43;2.63;;;2.38;;
15055;SDS011;7626;42.674;23.284;2022-08-03T09:56:11;2.80;;;2.60;;
15055;SDS011;7626;42.674;23.284;2022-08-03T09:58:43;2.63;;;2.40;;
15055;SDS011;7626;42.674;23.284;2022-08-03T10:01:10;3.63;;;2.40;;
15055;SDS011;7626;42.674;23.284;2022-08-03T10:03:37;2.92;;;2.20;;
15055;SDS011;7626;42.674;23.284;2022-08-03T10:06:13;4.18;;;2.30;;
15055;SDS011;7626;42.674;23.284;2022-08-03T10:08:40;2.65;;;2.42;;
15055;SDS011;7626;42.674;23.284;2022-08-03T10:11:06;2.63;;;2.42;;
15055;SDS011;7626;42.674;23.284;2022-08-03T10:13:34;2.40;;;2.17;;
15055;SDS011;7626;42.674;23.284;2022-08-03T10:16:01;3.08;;;2.30;;
15055;SDS011;7626;42.674;23.284;2022-08-03T10:18:28;3.38;;;2.42;;
15055;SDS011;7626;42.674;23.284;2022-08-03T10:20:59;4.65;;;3.03;;
15055;SDS011;7626;42.674;23.284;2022-08-03T10:23:27;5.72;;;3.25;;
15055;SDS011;7626;42.674;23.284;2022-08-03T10:25:56;3.80;;;2.80;;
15055;SDS011;7626;42.674;23.284;2022-08-03T10:28:23;2.85;;;2.58;;
15055;SDS011;7626;42.674;23.284;2022-08-03T10:30:51;2.75;;;2.55;;
15055;SDS011;7626;42.674;23.284;2022-08-03T10:33:19;2.65;;;2.45;;
15055;SDS011;7626;42.674;23.284;2022-08-03T10:35:46;3.67;;;2.83;;
15055;SDS011;7626;42.674;23.284;2022-08-03T10:38:16;2.80;;;2.60;;
15055;SDS011;7626;42.674;23.284;2022-08-03T10:40:43;3.00;;;2.70;;
15055;SDS011;7626;42.674;23.284;2022-08-03T10:43:11;3.22;;;2.63;;
15055;SDS011;7626;42.674;23.284;2022-08-03T10:45:38;2.83;;;2.53;;
15055;SDS011;7626;42.674;23.284;2022-08-03T10:48:07;3.05;;;2.30;;
15055;SDS011;7626;42.674;23.284;2022-08-03T10:50:34;2.97;;;2.40;;
15055;SDS011;7626;42.674;23.284;2022-08-03T10:53:02;2.88;;;2.40;;
15055;SDS011;7626;42.674;23.284;2022-08-03T10:55:31;2.90;;;2.60;;
15055;SDS011;7626;42.674;23.284;2022-08-03T10:58:14;2.70;;;2.50;;
15055;SDS011;7626;42.674;23.284;2022-08-03T11:01:01;4.47;;;2.47;;
15055;SDS011;7626;42.674;23.284;2022-08-03T11:03:31;3.17;;;2.40;;
15055;SDS011;7626;42.674;23.284;2022-08-03T11:06:13;2.95;;;2.15;;
15055;SDS011;7626;42.674;23.284;2022-08-03T11:08:40;2.20;;;2.00;;
15055;SDS011;7626;42.674;23.284;2022-08-03T11:13:58;2.22;;;2.03;;
15055;SDS011;7626;42.674;23.284;2022-08-03T11:16:33;2.45;;;2.25;;
15055;SDS011;7626;42.674;23.284;2022-08-03T11:19:02;2.38;;;2.17;;
15055;SDS011;7626;42.674;23.284;2022-08-03T11:29:36;2.33;;;2.13;;
15055;SDS011;7626;42.674;23.284;2022-08-03T11:32:02;2.22;;;2.05;;
15055;SDS011;7626;42.674;23.284;2022-08-03T11:34:30;4.63;;;2.30;;
15055;SDS011;7626;42.674;23.284;2022-08-03T11:39:42;2.40;;;2.20;;
15055;SDS011;7626;42.674;23.284;2022-08-03T11:44:55;2.00;;;1.90;;
15055;SDS011;7626;42.674;23.284;2022-08-03T11:47:23;2.95;;;2.05;;
15055;SDS011;7626;42.674;23.284;2022-08-03T11:49:52;2.10;;;2.00;;
15055;SDS011;7626;42.674;23.284;2022-08-03T11:52:19;3.35;;;2.20;;
15055;SDS011;7626;42.674;23.284;2022-08-03T11:54:49;2.40;;;2.20;;
15055;SDS011;7626;42.674;23.284;2022-08-03T11:57:27;3.67;;;2.60;;
15055;SDS011;7626;42.674;23.284;2022-08-03T11:59:53;3.35;;;2.25;;
15055;SDS011;7626;42.674;23.284;2022-08-03T12:02:20;2.42;;;2.22;;
15055;SDS011;7626;42.674;23.284;2022-08-03T12:04:49;2.40;;;2.20;;
15055;SDS011;7626;42.674;23.284;2022-08-03T12:07:17;2.22;;;2.03;;
15055;SDS011;7626;42.674;23.284;2022-08-03T12:12:25;2.60;;;2.38;;
15055;SDS011;7626;42.674;23.284;2022-08-03T12:14:52;3.03;;;2.45;;
15055;SDS011;7626;42.674;23.284;2022-08-03T12:17:19;2.25;;;2.08;;
15055;SDS011;7626;42.674;23.284;2022-08-03T12:19:45;3.88;;;2.50;;
15055;SDS011;7626;42.674;23.284;2022-08-03T12:22:12;7.15;;;2.88;;
15055;SDS011;7626;42.674;23.284;2022-08-03T12:24:41;4.25;;;3.40;;
15055;SDS011;7626;42.674;23.284;2022-08-03T12:27:08;2.85;;;2.58;;
15055;SDS011;7626;42.674;23.284;2022-08-03T12:29:34;2.72;;;2.40;;
15055;SDS011;7626;42.674;23.284;2022-08-03T12:32:01;2.60;;;2.40;;
15055;SDS011;7626;42.674;23.284;2022-08-03T12:37:09;4.57;;;2.28;;
15055;SDS011;7626;42.674;23.284;2022-08-03T12:39:35;4.38;;;2.13;;
15055;SDS011;7626;42.674;23.284;2022-08-03T12:42:03;2.67;;;2.20;;
15055;SDS011;7626;42.674;23.284;2022-08-03T12:44:30;2.20;;;2.00;;
15055;SDS011;7626;42.674;23.284;2022-08-03T12:46:57;2.72;;;2.25;;
15055;SDS011;7626;42.674;23.284;2022-08-03T12:49:24;2.40;;;2.20;;
15055;SDS011;7626;42.674;23.284;2022-08-03T12:51:54;2.47;;;2.28;;
15055;SDS011;7626;42.674;23.284;2022-08-03T12:54:22;2.53;;;2.33;;
15055;SDS011;7626;42.674;23.284;2022-08-03T12:56:58;2.63;;;2.42;;
15055;SDS011;7626;42.674;23.284;2022-08-03T12:59:27;3.50;;;2.22;;
15055;SDS011;7626;42.674;23.284;2022-08-03T13:04:56;2.40;;;2.20;;
15055;SDS011;7626;42.674;23.284;2022-08-03T13:07:24;3.30;;;2.20;;
15055;SDS011;7626;42.674;23.284;2022-08-03T13:09:51;2.40;;;2.20;;
15055;SDS011;7626;42.674;23.284;2022-08-03T13:12:18;2.50;;;2.30;;
15055;SDS011;7626;42.674;23.284;2022-08-03T13:14:47;4.28;;;2.30;;
15055;SDS011;7626;42.674;23.284;2022-08-03T13:17:14;2.42;;;2.17;;
15055;SDS011;7626;42.674;23.284;2022-08-03T13:19:41;2.63;;;2.40;;
15055;SDS011;7626;42.674;23.284;2022-08-03T13:22:11;2.60;;;2.40;;
15055;SDS011;7626;42.674;23.284;2022-08-03T13:24:38;3.70;;;2.22;;
15055;SDS011;7626;42.674;23.284;2022-08-03T13:27:05;2.85;;;2.38;;
15055;SDS011;7626;42.674;23.284;2022-08-03T13:29:32;2.60;;;2.28;;
15055;SDS011;7626;42.674;23.284;2022-08-03T13:32:00;3.28;;;2.65;;
15055;SDS011;7626;42.674;23.284;2022-08-03T13:34:26;2.90;;;2.60;;
15055;SDS011;7626;42.674;23.284;2022-08-03T13:36:53;3.75;;;2.67;;
15055;SDS011;7626;42.674;23.284;2022-08-03T13:39:19;4.35;;;2.60;;
15055;SDS011;7626;42.674;23.284;2022-08-03T13:41:46;4.53;;;3.05;;
15055;SDS011;7626;42.674;23.284;2022-08-03T13:44:12;3.20;;;2.90;;
15055;SDS011;7626;42.674;23.284;2022-08-03T13:46:39;3.97;;;2.53;;
15055;SDS011;7626;42.674;23.284;2022-08-03T13:49:07;3.00;;;2.45;;
15055;SDS011;7626;42.674;23.284;2022-08-03T13:51:34;6.35;;;2.63;;
15055;SDS011;7626;42.674;23.284;2022-08-03T13:54:00;3.40;;;3.10;;
15055;SDS011;7626;42.674;23.284;2022-08-03T13:56:27;3.03;;;2.80;;
15055;SDS011;7626;42.674;23.284;2022-08-03T13:58:54;3.70;;;3.03;;
15055;SDS011;7626;42.674;23.284;2022-08-03T14:01:21;4.38;;;3.30;;
15055;SDS011;7626;42.674;23.284;2022-08-03T14:03:47;4.07;;;2.90;;
15055;SDS011;7626;42.674;23.284;2022-08-03T14:06:18;3.53;;;2.83;;
15055;SDS011;7626;42.674;23.284;2022-08-03T14:08:44;3.97;;;2.88;;
15055;SDS011;7626;42.674;23.284;2022-08-03T14:11:12;5.68;;;3.17;;
15055;SDS011;7626;42.674;23.284;2022-08-03T14:13:38;4.43;;;2.92;;
15055;SDS011;7626;42.674;23.284;2022-08-03T14:16:05;5.05;;;3.38;;
15055;SDS011;7626;42.674;23.284;2022-08-03T14:18:32;4.50;;;2.95;;
15055;SDS011;7626;42.674;23.284;2022-08-03T14:20:58;4.35;;;3.40;;
15055;SDS011;7626;42.674;23.284;2022-08-03T14:23:27;4.75;;;3.00;;
15055;SDS011;7626;42.674;23.284;2022-08-03T14:25:53;3.67;;;3.13;;
15055;SDS011;7626;42.674;23.284;2022-08-03T14:28:20;3.30;;;3.00;;
15055;SDS011;7626;42.674;23.284;2022-08-03T14:30:47;4.80;;;3.20;;
15055;SDS011;7626;42.674;23.284;2022-08-03T14:33:14;5.85;;;3.30;;
15055;SDS011;7626;42.674;23.284;2022-08-03T14:35:40;3.35;;;2.92;;
15055;SDS011;7626;42.674;23.284;2022-08-03T14:38:07;3.15;;;2.95;;
15055;SDS011;7626;42.674;23.284;2022-08-03T14:40:35;2.92;;;2.72;;
15055;SDS011;7626;42.674;23.284;2022-08-03T14:43:01;3.63;;;2.85;;
15055;SDS011;7626;42.674;23.284;2022-08-03T14:45:28;3.10;;;2.80;;
15055;SDS011;7626;42.674;23.284;2022-08-03T14:47:55;3.08;;;2.85;;
15055;SDS011;7626;42.674;23.284;2022-08-03T14:50:24;3.17;;;2.88;;
15055;SDS011;7626;42.674;23.284;2022-08-03T14:52:50;3.75;;;2.97;;
15055;SDS011;7626;42.674;23.284;2022-08-03T14:55:17;2.95;;;2.70;;
15055;SDS011;7626;42.674;23.284;2022-08-03T14:57:45;5.32;;;3.20;;
15055;SDS011;7626;42.674;23.284;2022-08-03T15:00:11;4.28;;;3.20;;
15055;SDS011;7626;42.674;23.284;2022-08-03T15:02:38;4.70;;;3.40;;
15055;SDS011;7626;42.674;23.284;2022-08-03T15:05:05;5.45;;;3.30;;
15055;SDS011;7626;42.674;23.284;2022-08-03T15:07:32;4.07;;;2.95;;
15055;SDS011;7626;42.674;23.284;2022-08-03T15:09:58;4.88;;;2.80;;
15055;SDS011;7626;42.674;23.284;2022-08-03T15:12:32;5.10;;;3.00;;
15055;SDS011;7626;42.674;23.284;2022-08-03T15:15:14;3.55;;;3.17;;
15055;SDS011;7626;42.674;23.284;2022-08-03T15:17:41;6.10;;;3.33;;